FW9083 Weather Reports


Display with metric or nautical units.
time (UTC)temp
F
wind
direction
speed
MPH
gust
MPH
rain 1hr
in
rain 24hr
in
rain mn
in
humidity
%
barometer
mb
20210926005037 66 275 12.0 13.0 0.00 0.00 0.00 66 1017.8
20210926004534 66 337 5.0 7.0 0.00 0.00 0.00 67 1017.8
20210926004035 67 263 9.0 13.0 0.00 0.00 0.00 64 1017.7
20210926003533 67 324 4.0 7.0 0.00 0.00 0.00 64 1017.9
20210926003031 67 278 9.0 11.0 0.00 0.00 0.00 64 1017.7
20210926002531 68 269 9.0 14.0 0.00 0.00 0.00 64 1017.8
20210926002029 68 260 9.0 10.0 0.00 0.00 0.00 62 1017.6
20210926001528 68 255 7.0 8.0 0.00 0.00 0.00 61 1017.7
20210926001027 69 264 9.0 11.0 0.00 0.00 0.00 60 1017.9
20210926000520 69 273 9.0 11.0 0.00 0.00 0.00 62 1017.8
20210926000019 69 274 12.0 13.0 0.00 0.00 0.00 62 1017.8
20210925235518 69 271 9.0 11.0 0.00 0.00 0.00 61 1017.8
20210925235014 69 257 8.0 9.0 0.00 0.00 0.00 61 1017.9
20210925234514 69 270 11.0 13.0 0.00 0.00 0.00 61 1017.9
20210925234013 69 250 11.0 13.0 0.00 0.00 0.00 60 1017.7
20210925233510 69 263 11.0 14.0 0.00 0.00 0.00 61 1017.7
20210925233009 70 256 13.0 14.0 0.00 0.00 0.00 60 1017.8
20210925232509 70 320 5.0 10.0 0.00 0.00 0.00 60 1018.0
20210925232008 70 251 5.0 7.0 0.00 0.00 0.00 60 1017.6
20210925231505 70 323 11.0 13.0 0.00 0.00 0.00 59 1017.8
20210925231004 71 310 8.0 9.0 0.00 0.00 0.00 59 1017.8
20210925230459 71 291 7.0 11.0 0.00 0.00 0.00 57 1017.9
20210925225959 71 329 12.0 16.0 0.00 0.00 0.00 58 1017.7
20210925225457 72 275 6.0 11.0 0.00 0.00 0.00 57 1017.7
20210925224955 71 322 14.0 18.0 0.00 0.00 0.00 58 1017.8
20210925224455 72 258 15.0 17.0 0.00 0.00 0.00 56 1017.9
20210925223954 73 279 13.0 16.0 0.00 0.00 0.00 56 1018.1
20210925223453 73 264 9.0 13.0 0.00 0.00 0.00 56 1017.7
20210925222953 73 290 9.0 13.0 0.00 0.00 0.00 55 1018.0
20210925222451 73 300 10.0 13.0 0.00 0.00 0.00 56 1017.8
20210925221950 74 301 7.0 9.0 0.00 0.00 0.00 54 1017.9
20210925221449 74 252 9.0 11.0 0.00 0.00 0.00 53 1017.7
20210925220948 74 318 6.0 8.0 0.00 0.00 0.00 53 1017.9
20210925220446 74 302 13.0 16.0 0.00 0.00 0.00 54 1017.8
20210925215944 75 310 8.0 9.0 0.00 0.00 0.00 52 1017.6
20210925215443 75 268 10.0 13.0 0.00 0.00 0.00 52 1018.0
20210925214942 75 305 6.0 8.0 0.00 0.00 0.00 53 1017.8
20210925214439 75 310 10.0 11.0 0.00 0.00 0.00 52 1018.1
20210925213938 75 325 12.0 14.0 0.00 0.00 0.00 52 1018.0
20210925213437 75 265 10.0 10.0 0.00 0.00 0.00 51 1018.0
20210925212935 75 296 7.0 10.0 0.00 0.00 0.00 51 1018.2
20210925212434 77 310 12.0 15.0 0.00 0.00 0.00 49 1017.9
20210925211933 77 276 10.0 13.0 0.00 0.00 0.00 49 1018.1
20210925211431 77 268 8.0 9.0 0.00 0.00 0.00 49 1018.1
20210925210929 76 265 7.0 8.0 0.00 0.00 0.00 49 1018.2
20210925210427 78 303 11.0 15.0 0.00 0.00 0.00 48 1018.2
20210925205926 78 251 11.0 13.0 0.00 0.00 0.00 46 1018.1
20210925205424 78 288 8.0 11.0 0.00 0.00 0.00 46 1018.3
20210925204924 77 296 9.0 11.0 0.00 0.00 0.00 47 1018.5
20210925204423 78 354 10.0 14.0 0.00 0.00 0.00 45 1018.3
20210925203918 78 274 7.0 9.0 0.00 0.00 0.00 44 1018.6
20210925203416 78 307 7.0 10.0 0.00 0.00 0.00 45 1018.3
20210925202916 77 258 7.0 8.0 0.00 0.00 0.00 45 1018.5
20210925202416 77 296 6.0 8.0 0.00 0.00 0.00 44 1018.7
20210925201915 78 273 9.0 11.0 0.00 0.00 0.00 45 1018.7
20210925201414 77 291 6.0 8.0 0.00 0.00 0.00 45 1018.7
20210925200914 77 306 4.0 6.0 0.00 0.00 0.00 45 1018.9
20210925200413 76 314 7.0 8.0 0.00 0.00 0.00 47 1018.9
20210925195911 75 274 5.0 7.0 0.00 0.00 0.00 48 1018.8
20210925195409 76 268 10.0 11.0 0.00 0.00 0.00 45 1018.9
20210925194908 74 281 5.0 7.0 0.00 0.00 0.00 47 1019.1
20210925194408 74 260 5.0 6.0 0.00 0.00 0.00 48 1019.0
20210925193903 74 319 7.0 8.0 0.00 0.00 0.00 48 1019.2
20210925193403 73 266 6.0 7.0 0.00 0.00 0.00 49 1019.3
20210925192902 73 284 7.0 7.0 0.00 0.00 0.00 49 1019.3
20210925192356 72 282 5.0 6.0 0.00 0.00 0.00 50 1019.5
20210925191856 72 269 5.0 6.0 0.00 0.00 0.00 51 1019.5
20210925191356 71 316 5.0 6.0 0.00 0.00 0.00 51 1019.6
20210925190855 70 311 2.0 2.0 0.00 0.00 0.00 52 1019.7
20210925190353 70 244 3.0 5.0 0.00 0.00 0.00 53 1019.8
20210925185851 69 319 6.0 10.0 0.00 0.00 0.00 54 1019.9
20210925185349 69 301 2.0 3.0 0.00 0.00 0.00 56 1020.0
20210925184848 70 314 5.0 6.0 0.00 0.00 0.00 53 1019.9
20210925184346 68 324 3.0 5.0 0.00 0.00 0.00 55 1019.8
20210925183845 68 275 4.0 5.0 0.00 0.00 0.00 56 1020.1
20210925183343 68 304 5.0 6.0 0.00 0.00 0.00 56 1020.0
20210925182842 67 288 4.0 6.0 0.00 0.00 0.00 59 1020.2
20210925182340 67 307 3.0 5.0 0.00 0.00 0.00 58 1020.4
20210925181837 66 300 3.0 3.0 0.00 0.00 0.00 61 1020.5
20210925181337 65 318 4.0 5.0 0.00 0.00 0.00 63 1020.4
20210925180835 65 273 5.0 6.0 0.00 0.00 0.00 62 1020.6
20210925180334 64 268 4.0 7.0 0.00 0.00 0.00 64 1020.6
20210925175832 64 317 3.0 3.0 0.00 0.00 0.00 66 1020.7
20210925175332 64 245 5.0 6.0 0.00 0.00 0.00 66 1020.8
20210925174832 62 247 3.0 3.0 0.00 0.00 0.00 70 1021.0
20210925174330 62 258 3.0 5.0 0.00 0.00 0.00 69 1020.9
20210925173830 63 275 2.0 2.0 0.00 0.00 0.00 69 1020.7
20210925173328 61 351 0.0 1.0 0.00 0.00 0.00 72 1020.9
20210925172826 61 223 0.0 0.0 0.00 0.00 0.00 72 1020.9
20210925172325 59 332 0.0 0.0 0.00 0.00 0.00 77 1021.0
20210925171824 57 141 1.0 2.0 0.00 0.00 0.00 83 1021.1
20210925171322 57 196 2.0 2.0 0.00 0.00 0.00 83 1021.1
20210925170822 57 274 2.0 2.0 0.00 0.00 0.00 83 1021.1
20210925170318 56 352 0.0 0.0 0.00 0.00 0.00 84 1021.1
20210925165818 56 290 0.0 1.0 0.00 0.00 0.00 86 1021.1
20210925165258 55 259 4.0 5.0 0.00 0.00 0.00 89 1021.3
20210925164757 53 316 4.0 5.0 0.00 0.00 0.00 92 1021.1
20210925164255 53 249 5.0 6.0 0.00 0.00 0.00 93 1021.3
20210925163752 53 240 7.0 7.0 0.00 0.00 0.00 94 1021.5
20210925163249 52 268 7.0 8.0 0.00 0.00 0.00 94 1021.1
20210925162746 52 257 5.0 7.0 0.00 0.00 0.00 96 1021.2
20210925162244 52 300 2.0 2.0 0.00 0.00 0.00 97 1021.0
20210925161742 51 257 3.0 5.0 0.00 0.00 0.00 97 1020.9
20210925161237 51 279 3.0 3.0 0.00 0.00 0.00 99 1021.0
20210925160736 51 307 3.0 5.0 0.00 0.00 0.00 99 1020.9
20210925160234 51 261 4.0 5.0 0.00 0.00 0.00 99 1020.9
20210925155735 51 267 3.0 3.0 0.00 0.00 0.00 99 1021.1
20210925155232 51 264 4.0 5.0 0.00 0.00 0.00 99 1021.0
20210925154731 51 259 4.0 5.0 0.00 0.00 0.00 99 1020.8
20210925154230 50 288 2.0 2.0 0.00 0.00 0.00 99 1020.9
20210925153729 50 272 3.0 5.0 0.00 0.00 0.00 99 1020.8
20210925153227 50 303 4.0 5.0 0.00 0.00 0.00 99 1021.0
20210925152725 50 308 3.0 3.0 0.00 0.00 0.00 99 1020.9
20210925152225 50 330 2.0 2.0 0.00 0.00 0.00 99 1021.1
20210925151723 50 279 1.0 2.0 0.00 0.00 0.00 99 1020.8
20210925151222 50 293 3.0 3.0 0.00 0.00 0.00 99 1020.8
20210925150720 50 310 2.0 2.0 0.00 0.00 0.00 99 1020.7
20210925150219 50 281 3.0 5.0 0.00 0.00 0.00 99 1020.8
20210925145716 49 277 4.0 5.0 0.00 0.00 0.00 99 1020.5
20210925145215 49 359 1.0 2.0 0.00 0.00 0.00 99 1020.6
20210925144712 49 358 2.0 2.0 0.00 0.00 0.00 99 1020.1
20210925144212 49 332 1.0 1.0 0.00 0.00 0.00 99 1020.1
20210925143711 49 313 2.0 2.0 0.00 0.00 0.00 99 1020.1
20210925143208 49 5 1.0 2.0 0.00 0.00 0.00 99 1020.0
20210925142708 49 299 2.0 2.0 0.00 0.00 0.00 99 1020.1
20210925142206 49 349 0.0 1.0 0.00 0.00 0.00 99 1020.2
20210925141702 49 355 0.0 0.0 0.00 0.00 0.00 99 1020.0
20210925141202 49 6 0.0 0.0 0.00 0.00 0.00 99 1019.8
20210925140700 48 2 1.0 1.0 0.00 0.00 0.00 99 1019.9
20210925140200 49 5 0.0 0.0 0.00 0.00 0.00 99 1019.9
20210925135659 49 359 0.0 0.0 0.00 0.00 0.00 99 1019.8
20210925135157 49 3 0.0 1.0 0.00 0.00 0.00 99 1019.8
20210925134655 49 4 0.0 1.0 0.00 0.00 0.00 99 1019.4
20210925134152 49 0 0.0 0.0 0.00 0.00 0.00 99 1019.5
20210925133652 49 352 0.0 1.0 0.00 0.00 0.00 99 1019.5
20210925133149 49 347 1.0 1.0 0.00 0.00 0.00 99 1019.5
20210925132648 49 16 0.0 0.0 0.00 0.00 0.00 99 1019.5
20210925132141 49 347 0.0 0.0 0.00 0.00 0.00 99 1019.5
20210925131641 49 354 1.0 1.0 0.00 0.00 0.00 99 1019.7
20210925131141 49 339 0.0 0.0 0.00 0.00 0.00 98 1019.6
20210925130641 49 334 0.0 0.0 0.00 0.00 0.00 98 1019.4
20210925130137 49 311 1.0 1.0 0.00 0.00 0.00 98 1019.7
20210925125635 49 281 1.0 1.0 0.00 0.00 0.00 98 1019.6
20210925125134 49 297 1.0 1.0 0.00 0.00 0.00 98 1019.6
20210925124632 49 297 1.0 1.0 0.00 0.00 0.00 98 1019.6
20210925124131 50 297 1.0 1.0 0.00 0.00 0.00 97 1019.7
20210925123630 50 289 2.0 2.0 0.00 0.00 0.00 97 1019.6
20210925123130 50 290 2.0 2.0 0.00 0.00 0.00 97 1019.5
20210925122627 50 314 2.0 2.0 0.00 0.00 0.00 97 1019.5
20210925122126 50 300 3.0 3.0 0.00 0.00 0.00 96 1019.6
20210925121623 49 310 4.0 6.0 0.00 0.00 0.00 96 1019.6
20210925121123 48 291 4.0 5.0 0.00 0.00 0.00 96 1019.5
20210925120623 48 282 2.0 2.0 0.00 0.00 0.00 94 1019.7
20210925120123 47 315 0.0 1.0 0.00 0.00 0.00 95 1019.2
20210925115622 47 0 1.0 1.0 0.00 0.00 0.00 95 1019.4
20210925115119 47 354 1.0 1.0 0.00 0.00 0.00 95 1019.4
20210925114620 47 354 0.0 0.0 0.00 0.00 0.00 94 1019.3
20210925114118 46 354 0.0 0.0 0.00 0.00 0.00 94 1019.2
20210925113616 46 354 0.0 0.0 0.00 0.00 0.00 93 1019.0
20210925113115 46 315 0.0 0.0 0.00 0.00 0.00 93 1019.2
20210925112613 46 309 0.0 0.0 0.00 0.00 0.00 92 1019.2
20210925112112 46 283 1.0 1.0 0.00 0.00 0.00 92 1019.1
20210925111608 47 297 1.0 1.0 0.00 0.00 0.00 92 1019.0
20210925111108 47 318 1.0 1.0 0.00 0.00 0.00 92 1018.9
20210925110602 47 339 0.0 0.0 0.00 0.00 0.00 91 1019.0
20210925110101 47 338 0.0 1.0 0.00 0.00 0.00 91 1018.8
20210925105600 47 336 0.0 0.0 0.00 0.00 0.00 91 1018.9
20210925105059 47 284 2.0 2.0 0.00 0.00 0.00 91 1019.1
20210925104557 47 311 1.0 1.0 0.00 0.00 0.00 90 1019.0
20210925104054 47 316 1.0 1.0 0.00 0.00 0.00 90 1018.8
20210925103552 47 316 1.0 1.0 0.00 0.00 0.00 89 1018.9
20210925103052 48 304 1.0 1.0 0.00 0.00 0.00 88 1018.9
20210925102547 48 347 0.0 0.0 0.00 0.00 0.00 88 1018.8
20210925102047 48 348 0.0 0.0 0.00 0.00 0.00 88 1019.1
20210925101547 48 345 1.0 1.0 0.00 0.00 0.00 87 1018.9
20210925101046 48 306 0.0 0.0 0.00 0.00 0.00 86 1018.9
20210925100544 48 263 1.0 1.0 0.00 0.00 0.00 86 1018.9
20210925100044 48 23 0.0 0.0 0.00 0.00 0.00 86 1018.8
20210925095543 48 47 0.0 0.0 0.00 0.00 0.00 86 1018.9
20210925095041 48 79 1.0 1.0 0.00 0.00 0.00 86 1018.9
20210925094539 48 93 1.0 1.0 0.00 0.00 0.00 85 1018.7
20210925094037 49 15 0.0 0.0 0.00 0.00 0.00 85 1019.0
20210925093536 49 337 0.0 1.0 0.00 0.00 0.00 86 1019.0
20210925093032 49 337 0.0 0.0 0.00 0.00 0.00 85 1018.9
20210925092532 49 28 0.0 0.0 0.00 0.00 0.00 85 1019.0
20210925092027 49 89 1.0 1.0 0.00 0.00 0.00 84 1019.0
20210925091526 49 110 1.0 1.0 0.00 0.00 0.00 84 1018.8
20210925091024 50 48 0.0 1.0 0.00 0.00 0.00 84 1018.9
20210925090523 50 49 1.0 1.0 0.00 0.00 0.00 85 1019.0
20210925090023 50 47 0.0 0.0 0.00 0.00 0.00 85 1018.9
20210925085522 50 60 1.0 1.0 0.00 0.00 0.00 86 1018.8
20210925085020 50 28 0.0 0.0 0.00 0.00 0.00 86 1018.9
20210925084519 50 49 0.0 0.0 0.00 0.00 0.00 85 1019.2
20210925084018 50 109 0.0 0.0 0.00 0.00 0.00 84 1018.9
20210925083515 51 109 1.0 1.0 0.00 0.00 0.00 85 1018.9
20210925083005 51 347 0.0 0.0 0.00 0.00 0.00 87 1019.1
20210925082505 51 346 0.0 0.0 0.00 0.00 0.00 87 1018.9
20210925082002 51 310 0.0 0.0 0.00 0.00 0.00 87 1018.7
20210925081459 51 310 0.0 0.0 0.00 0.00 0.00 88 1018.8
20210925080959 51 310 0.0 0.0 0.00 0.00 0.00 86 1018.6
20210925080458 51 310 0.0 0.0 0.00 0.00 0.00 86 1018.9
20210925075957 52 310 0.0 0.0 0.00 0.00 0.00 84 1018.7
20210925075455 52 5 0.0 0.0 0.00 0.00 0.00 83 1018.8
20210925074954 52 0 0.0 1.0 0.00 0.00 0.00 83 1018.7
20210925074452 53 319 0.0 1.0 0.00 0.00 0.00 83 1019.1
20210925073951 53 274 1.0 1.0 0.00 0.00 0.00 82 1018.6
20210925073448 53 272 1.0 1.0 0.00 0.00 0.00 79 1018.9
20210925072948 53 36 0.0 0.0 0.00 0.00 0.00 80 1018.6
20210925072446 53 38 0.0 0.0 0.00 0.00 0.00 79 1018.7
20210925071946 53 42 0.0 0.0 0.00 0.00 0.00 78 1018.8
20210925071444 54 42 0.0 0.0 0.00 0.00 0.00 77 1018.7
20210925070941 55 37 0.0 0.0 0.00 0.00 0.00 76 1018.8
20210925070439 54 34 0.0 0.0 0.00 0.00 0.00 78 1018.9
20210925065930 54 36 0.0 0.0 0.00 0.00 0.00 77 1018.9
20210925065429 55 29 0.0 1.0 0.00 0.00 0.00 78 1018.4
20210925064927 55 345 0.0 0.0 0.00 0.00 0.00 79 1018.5
20210925064426 55 345 0.0 0.0 0.00 0.00 0.00 77 1018.5
20210925063924 55 345 0.0 0.0 0.00 0.00 0.00 77 1018.8
20210925063422 56 345 0.0 0.0 0.00 0.00 0.00 76 1018.6
20210925062920 56 345 0.0 0.0 0.00 0.00 0.00 75 1018.6
20210925062420 56 345 0.0 0.0 0.00 0.00 0.00 74 1018.5
20210925061920 56 310 0.0 0.0 0.00 0.00 0.00 75 1018.4
20210925061419 57 308 0.0 0.0 0.00 0.00 0.00 74 1018.2
20210925060919 57 326 1.0 1.0 0.00 0.00 0.00 73 1018.3
20210925060419 57 353 0.0 1.0 0.00 0.00 0.00 73 1018.3
20210925055916 57 310 0.0 0.0 0.00 0.00 0.00 74 1018.3
20210925055413 57 265 1.0 1.0 0.00 0.00 0.00 74 1018.3
20210925054912 58 1 0.0 0.0 0.00 0.00 0.00 71 1018.4
20210925054407 57 291 0.0 0.0 0.00 0.00 0.00 71 1018.3
20210925053905 57 291 0.0 0.0 0.00 0.00 0.00 69 1018.2
20210925053404 58 291 0.0 0.0 0.00 0.00 0.00 68 1018.1
20210925052903 58 290 0.0 0.0 0.00 0.00 0.00 67 1018.3
20210925052401 59 260 1.0 1.0 0.00 0.00 0.00 68 1018.3
20210925051900 59 321 0.0 0.0 0.00 0.00 0.00 66 1018.2
20210925051358 61 350 0.0 1.0 0.00 0.00 0.00 65 1018.2
20210925050856 60 332 0.0 0.0 0.00 0.00 0.00 64 1018.1
20210925050355 60 4 0.0 0.0 0.00 0.00 0.00 67 1018.2
20210925045854 61 5 0.0 0.0 0.00 0.00 0.00 65 1018.2
20210925045354 61 318 1.0 1.0 0.00 0.00 0.00 65 1018.2
20210925044854 61 337 0.0 1.0 0.00 0.00 0.00 65 1018.1
20210925044352 62 337 0.0 0.0 0.00 0.00 0.00 67 1018.0
20210925043850 62 336 0.0 1.0 0.00 0.00 0.00 61 1017.9
20210925043348 64 338 0.0 0.0 0.00 0.00 0.00 58 1018.0
20210925042847 64 321 0.0 1.0 0.00 0.00 0.00 59 1017.8
20210925042344 64 296 1.0 1.0 0.00 0.00 0.00 58 1017.8
20210925041844 65 314 1.0 1.0 0.00 0.00 0.00 56 1017.8
20210925041342 65 327 2.0 2.0 0.00 0.00 0.00 55 1018.0
20210925040840 64 286 2.0 2.0 0.00 0.00 0.00 55 1017.6
20210925040340 65 351 0.0 0.0 0.00 0.00 0.00 59 1017.4
20210925035839 67 314 1.0 1.0 0.00 0.00 0.00 57 1017.5
20210925035330 67 341 1.0 1.0 0.00 0.00 0.00 57 1017.6
20210925034829 67 341 0.0 1.0 0.00 0.00 0.00 54 1017.4
20210925034327 67 281 1.0 2.0 0.00 0.00 0.00 52 1017.2
20210925033826 70 278 2.0 2.0 0.00 0.00 0.00 53 1017.0
20210925033325 70 302 3.0 3.0 0.00 0.00 0.00 52 1017.3
20210925032823 70 317 1.0 2.0 0.00 0.00 0.00 49 1017.0
20210925032322 70 293 2.0 2.0 0.00 0.00 0.00 49 1017.0
20210925031820 68 300 2.0 2.0 0.00 0.00 0.00 49 1016.7
20210925031319 68 354 0.0 0.0 0.00 0.00 0.00 47 1016.7
20210925030817 68 314 0.0 0.0 0.00 0.00 0.00 46 1016.7
20210925030317 69 270 1.0 1.0 0.00 0.00 0.00 47 1016.6
20210925025815 70 3 0.0 0.0 0.00 0.00 0.00 44 1016.5
20210925025312 70 336 0.0 0.0 0.00 0.00 0.00 43 1016.6
20210925024811 70 349 0.0 0.0 0.00 0.00 0.00 42 1016.4
20210925024311 71 351 0.0 0.0 0.00 0.00 0.00 41 1016.3
20210925023806 72 333 0.0 0.0 0.00 0.00 0.00 39 1016.2
20210925023304 72 329 2.0 2.0 0.00 0.00 0.00 39 1016.3
20210925022802 74 291 1.0 1.0 0.00 0.00 0.00 37 1016.3
20210925022254 75 284 1.0 1.0 0.00 0.00 0.00 36 1016.1
20210925021753 76 296 1.0 1.0 0.00 0.00 0.00 35 1016.2
20210925021252 77 289 2.0 2.0 0.00 0.00 0.00 34 1016.1
20210925020751 77 312 2.0 2.0 0.00 0.00 0.00 32 1016.0
20210925020249 78 314 3.0 3.0 0.00 0.00 0.00 32 1016.1
20210925015745 78 303 3.0 3.0 0.00 0.00 0.00 31 1015.9
20210925015245 79 278 7.0 7.0 0.00 0.00 0.00 31 1016.1
20210925014743 79 266 7.0 8.0 0.00 0.00 0.00 31 1016.1
20210925014242 80 267 7.0 8.0 0.00 0.00 0.00 30 1015.9
20210925013741 81 247 8.0 8.0 0.00 0.00 0.00 30 1016.0
20210925013240 82 302 8.0 10.0 0.00 0.00 0.00 28 1015.8
20210925012740 82 266 5.0 6.0 0.00 0.00 0.00 25 1015.9
20210925012238 83 247 6.0 8.0 0.00 0.00 0.00 24 1015.9
20210925011736 83 251 7.0 7.0 0.00 0.00 0.00 24 1015.8
20210925011234 84 270 9.0 10.0 0.00 0.00 0.00 24 1015.9
20210925010732 84 254 7.0 9.0 0.00 0.00 0.00 23 1015.7
20210925010231 85 315 9.0 11.0 0.00 0.00 0.00 23 1015.7
20210925005730 86 251 8.0 9.0 0.00 0.00 0.00 24 1015.6
20210925005224 86 324 5.0 6.0 0.00 0.00 0.00 23 1015.8